createdAt,value
2023-05-14T00:02:13.117Z,56.88
2023-05-14T00:04:41.970Z,56.44
2023-05-14T00:07:09.815Z,56.05
2023-05-14T00:09:37.372Z,55.59
2023-05-14T00:12:04.545Z,55.15
2023-05-14T00:14:31.725Z,54.91
2023-05-14T00:17:00.180Z,54.72
2023-05-14T00:19:28.506Z,54.83
2023-05-14T00:21:56.493Z,54.41
2023-05-14T00:24:23.430Z,54.38
2023-05-14T00:26:50.044Z,54.26
2023-05-14T00:29:16.673Z,53.82
2023-05-14T00:31:43.684Z,53.81
2023-05-14T00:34:10.606Z,53.54
2023-05-14T00:36:37.412Z,53.56
2023-05-14T00:39:05.524Z,53.48
2023-05-14T00:41:34.386Z,53.46
2023-05-14T00:44:01.544Z,53.65
2023-05-14T00:46:30.466Z,53.70
2023-05-14T00:49:00.373Z,53.79
2023-05-14T00:51:27.783Z,54.14
2023-05-14T00:53:55.908Z,54.66
2023-05-14T00:56:23.529Z,55.01
2023-05-14T00:58:50.172Z,55.24
2023-05-14T01:01:17.600Z,55.37
2023-05-14T01:03:44.590Z,55.38
2023-05-14T01:06:52.601Z,55.51
2023-05-14T01:09:36.709Z,55.72
2023-05-14T01:12:13.021Z,55.83
2023-05-14T01:14:54.361Z,56.06
2023-05-14T01:17:22.470Z,56.87
2023-05-14T01:19:51.224Z,57.38
2023-05-14T01:22:21.160Z,57.83
2023-05-14T01:24:48.437Z,58.37
2023-05-14T01:27:45.652Z,59.13
2023-05-14T01:30:22.890Z,60.42
2023-05-14T01:32:51.631Z,60.94
2023-05-14T01:35:21.011Z,61.42
2023-05-14T01:37:47.767Z,62.15
2023-05-14T01:40:16.451Z,62.53
2023-05-14T01:42:43.221Z,62.88
2023-05-14T01:45:11.523Z,63.12
2023-05-14T01:47:38.195Z,63.29
2023-05-14T01:50:06.150Z,63.73
2023-05-14T01:52:34.257Z,63.88
2023-05-14T01:55:01.520Z,64.11
2023-05-14T01:57:28.598Z,64.30
2023-05-14T01:59:55.260Z,64.40
2023-05-14T02:02:24.149Z,64.76
2023-05-14T02:04:52.366Z,65.12
2023-05-14T02:07:20.105Z,65.40
2023-05-14T02:09:46.904Z,65.44
2023-05-14T02:12:13.281Z,65.63
2023-05-14T02:14:40.434Z,65.80
2023-05-14T02:17:08.120Z,65.88
2023-05-14T02:19:35.254Z,66.01
2023-05-14T02:22:01.847Z,66.18
2023-05-14T02:31:00.799Z,66.42
2023-05-14T02:33:30.654Z,66.48
2023-05-14T02:36:00.040Z,66.55
2023-05-14T02:38:27.020Z,66.85
2023-05-14T02:40:57.113Z,66.47
2023-05-14T02:43:24.914Z,65.30
2023-05-14T02:45:52.877Z,63.30
2023-05-14T02:48:20.382Z,61.43
2023-05-14T02:50:49.781Z,59.40
2023-05-14T02:53:17.098Z,58.27
2023-05-14T02:55:44.318Z,56.49
2023-05-14T02:58:12.603Z,54.88
2023-05-14T03:00:40.448Z,54.28
2023-05-14T03:03:08.661Z,53.16
2023-05-14T03:05:37.010Z,51.99
2023-05-14T03:08:05.379Z,51.06
2023-05-14T03:10:33.188Z,49.49
2023-05-14T03:13:00.954Z,48.61
2023-05-14T03:15:28.860Z,48.77
2023-05-14T03:17:56.358Z,49.34
2023-05-14T03:20:27.050Z,49.66
2023-05-14T03:22:54.923Z,50.76
2023-05-14T03:25:21.995Z,51.39
2023-05-14T03:27:49.438Z,52.20
2023-05-14T03:30:18.019Z,53.36
2023-05-14T03:32:47.396Z,54.24
2023-05-14T03:35:14.784Z,54.98
2023-05-14T03:37:43.100Z,55.86
2023-05-14T03:40:11.148Z,56.35
2023-05-14T03:42:38.355Z,56.57
2023-05-14T03:45:08.012Z,56.75
2023-05-14T03:47:37.963Z,57.12
2023-05-14T03:50:07.673Z,57.35
2023-05-14T03:52:35.499Z,57.32
2023-05-14T03:55:04.399Z,57.36
2023-05-14T03:57:31.501Z,57.11
2023-05-14T03:59:59.083Z,57.13
2023-05-14T04:02:26.492Z,57.31
2023-05-14T04:04:56.552Z,57.14
2023-05-14T04:07:24.250Z,57.08
2023-05-14T04:09:52.389Z,56.76
2023-05-14T04:12:20.146Z,56.42
2023-05-14T04:14:47.405Z,56.01
2023-05-14T04:17:16.808Z,55.66
2023-05-14T04:19:44.488Z,55.66
2023-05-14T04:22:11.873Z,55.63
2023-05-14T04:24:38.984Z,55.53
2023-05-14T04:27:07.060Z,55.22
2023-05-14T04:29:35.028Z,55.14
2023-05-14T04:32:02.889Z,54.93
2023-05-14T04:34:31.286Z,54.62
2023-05-14T04:36:58.488Z,54.40
2023-05-14T04:39:26.958Z,54.27
2023-05-14T04:41:54.740Z,54.32
2023-05-14T04:44:22.175Z,53.78
2023-05-14T04:46:50.696Z,53.58
2023-05-14T04:49:18.256Z,53.26
2023-05-14T04:58:35.008Z,52.43
2023-05-14T05:01:05.145Z,51.96
2023-05-14T05:03:32.679Z,51.31
2023-05-14T05:06:00.474Z,50.50
2023-05-14T05:08:28.399Z,50.30
2023-05-14T05:10:56.593Z,50.05
2023-05-14T05:13:25.084Z,49.44
2023-05-14T05:15:52.420Z,49.02
2023-05-14T05:18:20.464Z,48.91
2023-05-14T05:20:49.963Z,48.33
2023-05-14T05:23:19.521Z,46.77
2023-05-14T05:25:46.794Z,44.85
2023-05-14T05:28:14.340Z,43.87
2023-05-14T05:30:41.739Z,42.34
2023-05-14T05:33:10.881Z,40.58
2023-05-14T05:35:38.696Z,39.94
2023-05-14T05:38:05.960Z,39.84
2023-05-14T05:40:33.507Z,39.46
2023-05-14T05:43:01.636Z,38.92
2023-05-14T05:45:30.397Z,37.91
2023-05-14T05:47:57.588Z,36.96
2023-05-14T05:50:25.944Z,35.60
2023-05-14T05:52:53.734Z,34.60
2023-05-14T05:55:21.128Z,33.29
2023-05-14T05:57:48.155Z,32.43
2023-05-14T06:00:15.402Z,32.52
2023-05-14T06:02:43.020Z,32.26
2023-05-14T06:05:10.756Z,31.16
2023-05-14T06:07:38.238Z,30.80
2023-05-14T06:10:06.494Z,30.28
2023-05-14T06:12:33.781Z,29.88
2023-05-14T06:15:00.890Z,29.62
2023-05-14T06:17:28.016Z,30.06
2023-05-14T06:19:54.873Z,29.60
2023-05-14T06:22:21.864Z,30.09
2023-05-14T06:24:49.251Z,29.87
2023-05-14T06:27:16.199Z,29.61
2023-05-14T06:29:43.262Z,29.55
2023-05-14T06:32:10.538Z,29.59
2023-05-14T06:34:37.770Z,29.14
2023-05-14T06:37:05.675Z,29.05
2023-05-14T06:39:32.700Z,28.20
2023-05-14T06:41:59.644Z,27.89
2023-05-14T06:44:27.742Z,27.74
2023-05-14T06:46:54.631Z,27.59
2023-05-14T06:49:22.047Z,27.58
2023-05-14T06:51:49.011Z,27.95
2023-05-14T06:54:16.012Z,27.13
2023-05-14T06:56:42.991Z,26.44
2023-05-14T06:59:09.969Z,25.56
2023-05-14T07:01:37.412Z,25.22
2023-05-14T07:04:04.554Z,24.95
2023-05-14T07:06:32.689Z,25.09
2023-05-14T07:08:59.787Z,25.26
2023-05-14T07:11:27.628Z,24.94
2023-05-14T07:13:55.366Z,24.71
2023-05-14T07:16:22.325Z,24.39
2023-05-14T07:18:49.425Z,23.91
2023-05-14T07:21:16.512Z,23.30
2023-05-14T07:26:22.252Z,23.31
2023-05-14T07:28:49.322Z,23.67
2023-05-14T07:31:16.303Z,23.61
2023-05-14T07:33:43.776Z,22.86
2023-05-14T07:36:10.860Z,22.64
2023-05-14T07:38:37.908Z,22.90
2023-05-14T07:41:05.440Z,21.90
2023-05-14T07:43:33.583Z,21.29
2023-05-14T07:46:00.715Z,21.50
2023-05-14T07:48:27.869Z,20.90
2023-05-14T07:50:54.943Z,21.28
2023-05-14T07:53:22.149Z,21.17
2023-05-14T07:55:49.370Z,21.53
2023-05-14T07:58:16.836Z,21.63
2023-05-14T08:00:43.792Z,20.50
2023-05-14T08:03:10.979Z,20.76
2023-05-14T08:05:38.116Z,20.77
2023-05-14T08:08:05.137Z,20.55
2023-05-14T08:10:32.401Z,20.02
2023-05-14T08:12:59.431Z,19.52
2023-05-14T08:15:27.927Z,19.98
2023-05-14T08:17:55.931Z,19.69
2023-05-14T08:20:24.254Z,19.12
2023-05-14T08:22:51.460Z,19.11
2023-05-14T08:25:18.636Z,19.68
2023-05-14T08:27:45.736Z,19.83
2023-05-14T08:30:13.311Z,19.95
2023-05-14T08:32:41.052Z,20.34
2023-05-14T08:35:08.461Z,20.95
2023-05-14T08:37:35.508Z,21.83
2023-05-14T08:40:02.606Z,22.53
2023-05-14T08:42:29.988Z,22.75
2023-05-14T08:45:03.719Z,23.23
2023-05-14T08:47:31.399Z,24.62
2023-05-14T08:50:06.723Z,25.96
2023-05-14T08:52:34.680Z,26.65
2023-05-14T08:55:04.332Z,27.39
2023-05-14T09:02:24.480Z,29.08
2023-05-14T09:04:57.123Z,27.83
2023-05-14T09:07:24.219Z,27.76
2023-05-14T09:09:54.435Z,26.97
2023-05-14T09:12:21.717Z,26.12
2023-05-14T09:14:49.182Z,25.73
2023-05-14T09:17:16.713Z,25.89
2023-05-14T09:19:44.183Z,25.61
2023-05-14T09:22:15.415Z,25.67
2023-05-14T09:24:42.554Z,25.53
2023-05-14T09:27:10.495Z,23.81
2023-05-14T09:29:37.637Z,24.30
2023-05-14T09:32:07.521Z,23.83
2023-05-14T09:34:37.984Z,23.97
2023-05-14T09:37:06.344Z,22.68
2023-05-14T09:39:34.199Z,22.16
2023-05-14T09:42:01.462Z,22.72
2023-05-14T09:44:29.269Z,22.73
2023-05-14T09:46:57.449Z,23.06
2023-05-14T09:49:24.848Z,23.67
2023-05-14T09:51:51.957Z,24.80
2023-05-14T09:54:19.095Z,26.14
2023-05-14T09:56:46.362Z,27.37
2023-05-14T09:59:13.754Z,28.68
2023-05-14T10:01:41.317Z,29.51
2023-05-14T10:04:08.805Z,30.06
2023-05-14T10:06:37.404Z,29.18
2023-05-14T10:09:06.001Z,28.82
2023-05-14T10:11:34.011Z,28.20
2023-05-14T10:14:08.127Z,28.54
2023-05-14T10:16:38.454Z,28.77
2023-05-14T10:19:12.515Z,28.34
2023-05-14T10:21:41.464Z,27.77
2023-05-14T10:24:08.970Z,28.24
2023-05-14T10:26:39.525Z,28.07
2023-05-14T10:29:07.222Z,28.03
2023-05-14T10:31:54.245Z,26.35
2023-05-14T10:34:46.266Z,25.45
2023-05-14T10:37:17.553Z,25.68
2023-05-14T10:39:51.822Z,26.47
2023-05-14T10:42:22.295Z,26.84
2023-05-14T10:44:55.626Z,26.48
2023-05-14T10:47:22.695Z,25.71
2023-05-14T10:49:49.750Z,25.84
2023-05-14T10:52:18.892Z,25.81
2023-05-14T10:54:53.986Z,25.16
2023-05-14T10:57:21.841Z,25.29
2023-05-14T10:59:55.637Z,25.54
2023-05-14T11:02:27.449Z,26.13
2023-05-14T11:05:05.839Z,26.95
2023-05-14T11:07:40.477Z,28.12
2023-05-14T11:10:07.994Z,27.18
2023-05-14T11:12:36.393Z,25.96
2023-05-14T11:15:06.581Z,27.36
2023-05-14T11:17:34.826Z,28.14
2023-05-14T11:20:01.934Z,29.08
2023-05-14T11:22:29.398Z,30.03
2023-05-14T11:24:57.560Z,30.18
2023-05-14T11:27:24.541Z,30.45
2023-05-14T11:29:51.566Z,30.64
2023-05-14T11:32:19.414Z,30.19
2023-05-14T11:34:46.848Z,29.82
2023-05-14T11:37:15.992Z,29.97
2023-05-14T11:39:52.343Z,30.64
2023-05-14T11:42:19.903Z,31.41
2023-05-14T11:44:51.926Z,32.15
2023-05-14T11:47:21.469Z,32.98
2023-05-14T11:49:49.330Z,33.31
2023-05-14T11:52:19.651Z,32.96
2023-05-14T11:54:49.868Z,33.59
2023-05-14T11:57:19.877Z,34.17
2023-05-14T11:59:48.551Z,35.25
2023-05-14T12:02:17.749Z,35.63
2023-05-14T12:04:45.429Z,36.02
2023-05-14T12:07:13.943Z,36.71
2023-05-14T12:09:52.223Z,36.57
2023-05-14T12:12:23.274Z,35.94
2023-05-14T12:14:51.128Z,35.55
2023-05-14T12:17:19.360Z,35.38
2023-05-14T12:19:47.740Z,35.11
2023-05-14T12:22:16.407Z,35.16
2023-05-14T12:24:44.501Z,35.53
2023-05-14T12:27:11.976Z,35.43
2023-05-14T12:29:39.154Z,35.04
2023-05-14T12:32:09.551Z,34.42
2023-05-14T12:34:37.630Z,34.13
2023-05-14T12:37:05.911Z,33.37
2023-05-14T12:39:33.713Z,32.64
2023-05-14T12:42:01.405Z,32.00
2023-05-14T12:44:29.064Z,31.96
2023-05-14T12:46:56.254Z,31.71
2023-05-14T12:49:23.341Z,31.56
2023-05-14T12:51:56.713Z,31.17
2023-05-14T12:54:31.930Z,30.55
2023-05-14T12:56:59.183Z,30.57
2023-05-14T12:59:26.279Z,30.53
2023-05-14T13:01:53.261Z,29.76
2023-05-14T13:04:20.420Z,29.91
2023-05-14T13:06:47.588Z,29.94
2023-05-14T13:09:14.596Z,29.80
2023-05-14T13:11:41.589Z,30.19
2023-05-14T13:14:08.713Z,30.60
2023-05-14T13:16:36.029Z,30.35
2023-05-14T13:19:03.009Z,29.58
2023-05-14T13:21:29.994Z,29.09
2023-05-14T13:23:56.964Z,28.20
2023-05-14T13:26:26.637Z,27.94
2023-05-14T13:28:53.858Z,27.19
2023-05-14T13:31:20.916Z,26.33
2023-05-14T13:33:47.876Z,25.57
2023-05-14T13:36:15.362Z,25.16
2023-05-14T13:38:42.565Z,25.21
2023-05-14T13:41:09.662Z,24.67
2023-05-14T13:43:37.023Z,24.89
2023-05-14T13:46:05.000Z,25.10
2023-05-14T13:48:32.245Z,25.09
2023-05-14T13:50:59.464Z,24.69
2023-05-14T13:53:26.702Z,24.85
2023-05-14T13:55:58.420Z,25.32
2023-05-14T13:58:26.275Z,25.03
2023-05-14T14:00:53.622Z,24.84
2023-05-14T14:03:20.755Z,24.61
2023-05-14T14:05:47.922Z,24.50
2023-05-14T14:08:23.374Z,24.36
2023-05-14T14:10:52.278Z,24.33
2023-05-14T14:13:21.283Z,24.23
2023-05-14T14:15:48.606Z,24.41
2023-05-14T14:18:15.766Z,24.35
2023-05-14T14:20:42.743Z,25.05
2023-05-14T14:23:09.804Z,25.79
2023-05-14T14:25:36.798Z,27.57
2023-05-14T14:28:04.112Z,29.25
2023-05-14T14:30:31.251Z,30.41
2023-05-14T15:29:54.303Z,29.07
2023-05-14T15:32:22.081Z,27.57
2023-05-14T15:34:49.889Z,26.75
2023-05-14T15:37:17.143Z,28.69
2023-05-14T15:39:44.822Z,30.71
2023-05-14T15:42:11.849Z,31.96
2023-05-14T15:44:39.190Z,33.15
2023-05-14T15:47:06.803Z,33.75
2023-05-14T15:49:34.224Z,33.16
2023-05-14T15:52:02.904Z,32.03
2023-05-14T15:54:30.160Z,32.55
2023-05-14T15:56:57.318Z,32.15
2023-05-14T15:59:24.896Z,32.25
2023-05-14T16:01:52.599Z,33.34
2023-05-14T16:04:20.014Z,33.74
2023-05-14T16:07:05.929Z,34.34
2023-05-14T16:09:34.558Z,34.24
2023-05-14T16:12:01.732Z,34.09
2023-05-14T16:14:29.249Z,33.47
2023-05-14T16:16:56.675Z,33.16
2023-05-14T16:19:24.081Z,32.89
2023-05-14T16:21:51.205Z,32.94
2023-05-14T16:24:18.800Z,33.08
2023-05-14T16:26:46.368Z,33.48
2023-05-14T16:29:13.396Z,32.42
2023-05-14T16:31:40.983Z,32.05
2023-05-14T16:34:08.131Z,32.27
2023-05-14T16:36:35.794Z,32.69
2023-05-14T16:41:36.201Z,34.26
2023-05-14T16:44:03.771Z,34.60
2023-05-14T16:46:31.361Z,34.34
2023-05-14T16:48:58.548Z,34.62
2023-05-14T16:51:25.885Z,34.30
2023-05-14T16:53:55.254Z,34.19
2023-05-14T16:56:22.925Z,33.94
2023-05-14T16:58:50.138Z,33.39
2023-05-14T17:01:17.455Z,33.35
2023-05-14T17:03:45.887Z,33.14
2023-05-14T17:06:13.038Z,33.42
2023-05-14T17:08:40.672Z,33.32
2023-05-14T17:11:08.032Z,33.34
2023-05-14T17:13:36.006Z,33.11
2023-05-14T17:16:03.301Z,33.81
2023-05-14T17:18:32.901Z,34.06
2023-05-14T17:21:00.218Z,34.21
2023-05-14T17:23:27.263Z,34.17
2023-05-14T17:25:56.754Z,34.28
2023-05-14T17:28:24.724Z,34.43
2023-05-14T17:30:51.893Z,34.35
2023-05-14T17:33:18.943Z,34.46
2023-05-14T17:35:46.020Z,34.43
2023-05-14T17:38:13.008Z,34.84
2023-05-14T17:40:41.035Z,35.85
2023-05-14T17:43:08.610Z,36.58
2023-05-14T17:45:52.453Z,37.29
2023-05-14T17:48:22.310Z,38.92
2023-05-14T17:50:49.434Z,38.89
2023-05-14T17:53:16.470Z,38.72
2023-05-14T17:55:43.880Z,38.32
2023-05-14T17:58:13.508Z,37.97
2023-05-14T18:00:40.635Z,37.69
2023-05-14T18:03:10.708Z,37.53
2023-05-14T18:05:37.917Z,37.31
2023-05-14T18:08:05.375Z,37.28
2023-05-14T18:10:32.442Z,37.08
2023-05-14T18:12:59.975Z,38.06
2023-05-14T18:15:27.582Z,39.18
2023-05-14T18:17:54.599Z,39.29
2023-05-14T18:20:21.704Z,38.51
2023-05-14T18:22:50.631Z,38.72
2023-05-14T18:25:17.711Z,39.53
2023-05-14T18:27:45.337Z,40.96
2023-05-14T18:30:14.112Z,42.00
2023-05-14T18:32:41.832Z,43.08
2023-05-14T18:35:09.169Z,43.80
2023-05-14T18:37:36.531Z,44.72
2023-05-14T18:40:04.794Z,45.37
2023-05-14T18:42:33.887Z,45.18
2023-05-14T18:45:01.616Z,44.60
2023-05-14T18:47:28.954Z,44.39
2023-05-14T18:49:58.225Z,44.02
2023-05-14T18:52:26.428Z,43.58
2023-05-14T18:54:54.762Z,43.53
2023-05-14T18:57:22.939Z,43.69
2023-05-14T18:59:50.082Z,44.19
2023-05-14T19:02:17.133Z,44.81
2023-05-14T19:04:52.205Z,44.02
2023-05-14T19:07:20.825Z,43.97
2023-05-14T19:09:47.880Z,44.25
2023-05-14T19:12:15.161Z,44.68
2023-05-14T19:14:42.349Z,44.80
2023-05-14T19:17:09.469Z,44.69
2023-05-14T19:19:36.642Z,44.26
2023-05-14T19:22:08.212Z,44.28
2023-05-14T19:24:38.895Z,44.47
2023-05-14T19:27:06.215Z,44.42
2023-05-14T19:29:34.306Z,44.56
2023-05-14T19:32:04.784Z,44.52
2023-05-14T19:34:40.592Z,44.58
2023-05-14T19:37:07.874Z,44.55
2023-05-14T19:39:35.841Z,44.28
2023-05-14T19:42:59.470Z,44.15
2023-05-14T19:45:27.646Z,44.37
2023-05-14T19:47:55.046Z,45.75
2023-05-14T19:50:22.850Z,46.42
2023-05-14T19:52:51.908Z,47.78
2023-05-14T19:55:20.923Z,48.33
2023-05-14T19:57:48.303Z,49.35
2023-05-14T20:00:16.277Z,49.53
2023-05-14T20:02:44.875Z,49.18
2023-05-14T20:05:12.348Z,49.41
2023-05-14T20:07:40.586Z,49.36
2023-05-14T20:10:09.266Z,49.14
2023-05-14T20:12:36.506Z,50.00
2023-05-14T20:15:04.483Z,51.30
2023-05-14T20:17:33.088Z,51.98
2023-05-14T20:20:00.432Z,52.22
2023-05-14T20:22:27.660Z,52.48
2023-05-14T20:24:55.124Z,52.36
2023-05-14T20:27:22.576Z,52.23
2023-05-14T20:29:51.682Z,51.27
2023-05-14T20:32:24.935Z,49.89
2023-05-14T20:34:52.141Z,48.64
2023-05-14T20:37:21.678Z,47.79
2023-05-14T20:39:48.844Z,47.11
2023-05-14T20:42:16.098Z,46.67
2023-05-14T20:44:43.592Z,46.52
2023-05-14T20:47:10.839Z,46.55
2023-05-14T20:49:38.189Z,46.51
2023-05-14T20:52:05.980Z,46.78
2023-05-14T20:54:34.580Z,47.88
2023-05-14T20:57:02.104Z,48.48
2023-05-14T20:59:29.452Z,49.00
2023-05-14T21:01:56.637Z,49.28
2023-05-14T21:04:24.045Z,49.07
2023-05-14T21:06:51.867Z,48.30
2023-05-14T21:09:21.108Z,47.75
2023-05-14T21:11:48.375Z,47.35
2023-05-14T21:14:16.063Z,46.96
2023-05-14T21:16:43.206Z,47.11
2023-05-14T21:19:11.225Z,47.08
2023-05-14T21:21:39.295Z,48.50
2023-05-14T21:24:08.003Z,50.87
2023-05-14T21:26:37.117Z,52.28
2023-05-14T21:29:04.673Z,53.14
2023-05-14T21:31:31.750Z,54.12
2023-05-14T21:33:59.088Z,55.08
2023-05-14T21:36:26.254Z,55.92
2023-05-14T21:38:54.184Z,56.84
2023-05-14T21:41:21.893Z,57.68
2023-05-14T21:43:48.794Z,58.71
2023-05-14T21:46:16.666Z,59.46
2023-05-14T21:48:43.704Z,60.30
2023-05-14T21:51:11.728Z,61.18
2023-05-14T21:53:38.828Z,61.72
2023-05-14T21:56:07.256Z,62.16
2023-05-14T21:58:34.252Z,62.98
2023-05-14T22:01:02.020Z,63.82
2023-05-14T22:03:31.707Z,64.08
2023-05-14T22:05:58.872Z,64.32
2023-05-14T22:08:27.301Z,64.56
2023-05-14T22:10:55.692Z,64.68
2023-05-14T22:13:23.537Z,65.01
2023-05-14T22:15:58.141Z,65.49
2023-05-14T22:18:33.092Z,66.02
2023-05-14T22:21:00.492Z,66.42
2023-05-14T22:23:27.601Z,66.78
2023-05-14T22:25:56.754Z,67.05
2023-05-14T22:28:24.410Z,67.31
2023-05-14T22:30:51.664Z,67.61
2023-05-14T22:33:19.562Z,67.87
2023-05-14T22:35:47.067Z,67.50
2023-05-14T22:38:14.340Z,67.31
2023-05-14T22:40:42.420Z,67.03
2023-05-14T22:43:09.634Z,66.90
2023-05-14T22:45:36.708Z,66.90
2023-05-14T22:48:03.897Z,67.44
2023-05-14T22:50:31.213Z,66.85
2023-05-14T22:52:58.507Z,66.10
2023-05-14T22:55:25.921Z,65.18
2023-05-14T22:57:53.495Z,64.72
2023-05-14T23:00:20.732Z,63.69
2023-05-14T23:02:48.251Z,63.44
2023-05-14T23:05:16.577Z,63.03
2023-05-14T23:07:44.070Z,62.48
2023-05-14T23:10:11.716Z,61.89
2023-05-14T23:12:40.013Z,61.38
2023-05-14T23:15:08.957Z,61.07
2023-05-14T23:17:37.035Z,61.19
2023-05-14T23:20:06.231Z,61.07
2023-05-14T23:22:33.886Z,61.02
2023-05-14T23:25:01.398Z,60.91
2023-05-14T23:27:28.852Z,61.02
2023-05-14T23:29:55.947Z,61.14
2023-05-14T23:32:23.538Z,61.94
2023-05-14T23:34:51.067Z,62.55
2023-05-14T23:37:17.953Z,63.30
2023-05-14T23:39:44.847Z,63.81
2023-05-14T23:42:11.793Z,64.26
2023-05-14T23:44:38.788Z,64.95
2023-05-14T23:47:06.016Z,65.50
2023-05-14T23:49:33.109Z,66.07
2023-05-14T23:52:00.110Z,66.56
2023-05-14T23:54:27.031Z,66.91
2023-05-14T23:56:53.952Z,67.31
2023-05-14T23:59:21.020Z,67.68
